CYNR

SPECI CYNR 230009Z AUTO 06003KT 2SM -SN FEW019 BKN029 OVC050 M11/M14 A3014 RMK AO2 SLP244
SPECI
LOCATION
CYNR
DATE - TIME
230009Z
WIND
060 TRUE @ 3 KNOTS
VISIBILITY
2SM
RUNWAY VISUAL RANGE
NOT REPORTED
WEATHER
SNOW, SLIGHT
CLOUDINESS
FEW019 BKN029 OVC050
TEMP / DEWPOINT
-11 ºC / -14 ºC
ALTIMETER
30.14 in. Hg
RECENT WEATHER
NOT REPORTED
WIND SHEAR
NOT REPORTED
REMARKS
RMK AO2 SLP244
SEA LEVEL PRESSURE: hPa

CYNR

METAR CYNR 230000Z AUTO 06004KT 2SM -SN VV033 M11/M13 A3014 RMK AO2 SLP244
METAR
LOCATION
CYNR
DATE - TIME
230000Z
WIND
060 TRUE @ 4 KNOTS
VISIBILITY
2SM
RUNWAY VISUAL RANGE
NOT REPORTED
WEATHER
SNOW, SLIGHT
CLOUDINESS
TEMP / DEWPOINT
-11 ºC / -13 ºC
ALTIMETER
30.14 in. Hg
RECENT WEATHER
NOT REPORTED
WIND SHEAR
NOT REPORTED
REMARKS
RMK AO2 SLP244
SEA LEVEL PRESSURE: hPa

CYNR

SPECI CYNR 222358Z AUTO 05004KT 1 1/2SM -SN VV033 M11/M13 A3014 RMK AO2 SLP243
SPECI
LOCATION
CYNR
DATE - TIME
222358Z
WIND
050 TRUE @ 4 KNOTS
VISIBILITY
1 1/2SM
RUNWAY VISUAL RANGE
NOT REPORTED
WEATHER
SNOW, SLIGHT
CLOUDINESS
TEMP / DEWPOINT
-11 ºC / -13 ºC
ALTIMETER
30.14 in. Hg
RECENT WEATHER
NOT REPORTED
WIND SHEAR
NOT REPORTED
REMARKS
RMK AO2 SLP243
SEA LEVEL PRESSURE: hPa

Your time UTC time
 
 
Weather data provided by AXYS Technologies Inc., www.axystechnologies.com
 
Station History